createdAt,value
2019-06-26T00:00:20.744Z,0.00
2019-06-26T00:01:20.730Z,0.00
2019-06-26T00:02:20.722Z,0.00
2019-06-26T00:03:20.814Z,0.00
2019-06-26T00:05:20.689Z,0.00
2019-06-26T00:06:20.798Z,0.00
2019-06-26T00:07:20.666Z,0.00
2019-06-26T00:08:20.754Z,0.00
2019-06-26T00:09:20.738Z,0.00
2019-06-26T00:10:20.640Z,0.00
2019-06-26T00:11:20.628Z,0.00
2019-06-26T00:12:20.619Z,0.00
2019-06-26T00:13:26.163Z,0.00
2019-06-26T00:14:20.588Z,0.00
2019-06-26T00:15:20.571Z,0.00
2019-06-26T00:16:20.565Z,0.00
2019-06-26T00:17:20.558Z,0.00
2019-06-26T00:18:20.553Z,0.00
2019-06-26T00:19:21.297Z,0.00
2019-06-26T00:20:23.849Z,0.00
2019-06-26T00:21:22.040Z,0.00
2019-06-26T00:22:20.493Z,0.00
2019-06-26T00:23:20.482Z,0.00
2019-06-26T00:24:20.564Z,0.00
2019-06-26T00:25:20.563Z,0.00
2019-06-26T00:26:20.447Z,0.00
2019-06-26T00:27:20.434Z,0.00
2019-06-26T00:28:20.433Z,0.00
2019-06-26T00:30:20.405Z,0.00
2019-06-26T00:31:20.455Z,0.00
2019-06-26T00:32:20.489Z,0.00
2019-06-26T00:33:20.523Z,0.00
2019-06-26T00:34:20.358Z,0.00
2019-06-26T00:35:20.413Z,0.00
2019-06-26T00:36:20.330Z,0.00
2019-06-26T00:37:20.317Z,0.00
2019-06-26T00:38:20.311Z,0.00
2019-06-26T00:39:20.301Z,0.00
2019-06-26T00:40:20.292Z,0.00
2019-06-26T00:41:20.274Z,0.00
2019-06-26T00:42:20.260Z,0.00
2019-06-26T00:43:20.255Z,0.00
2019-06-26T00:44:20.249Z,0.00
2019-06-26T00:45:20.225Z,0.00
2019-06-26T00:46:20.278Z,0.00
2019-06-26T00:47:20.248Z,0.00
2019-06-26T00:48:20.492Z,0.00
2019-06-26T00:49:20.290Z,0.00
2019-06-26T00:50:20.398Z,0.00
2019-06-26T00:51:20.164Z,0.00
2019-06-26T00:52:20.151Z,0.00
2019-06-26T00:53:20.237Z,0.00
2019-06-26T00:54:20.118Z,0.00
2019-06-26T00:56:20.101Z,0.00
2019-06-26T00:57:20.089Z,0.00
2019-06-26T00:58:20.088Z,0.00
2019-06-26T00:59:20.074Z,0.00
2019-06-26T01:00:20.130Z,0.00
2019-06-26T01:01:20.051Z,0.00
2019-06-26T01:02:20.032Z,0.00
2019-06-26T01:03:20.124Z,0.00
2019-06-26T01:04:20.325Z,0.00
2019-06-26T01:05:20.071Z,0.00
2019-06-26T01:06:19.988Z,0.00
2019-06-26T01:07:20.081Z,0.00
2019-06-26T01:08:20.133Z,0.00
2019-06-26T01:09:19.960Z,0.00
2019-06-26T01:10:20.291Z,0.00
2019-06-26T01:11:21.687Z,0.00
2019-06-26T01:12:19.943Z,0.00
2019-06-26T01:13:19.937Z,0.00
2019-06-26T01:14:19.886Z,0.00
2019-06-26T01:15:20.046Z,0.00
2019-06-26T01:16:19.965Z,0.00
2019-06-26T01:17:20.041Z,0.00
2019-06-26T01:18:20.330Z,0.00
2019-06-26T01:19:20.536Z,0.00
2019-06-26T01:20:19.866Z,0.00
2019-06-26T01:21:19.803Z,0.00
2019-06-26T01:22:19.799Z,0.00
2019-06-26T01:23:20.043Z,0.00
2019-06-26T01:25:19.913Z,0.00
2019-06-26T01:26:20.150Z,0.00
2019-06-26T01:27:19.975Z,0.00
2019-06-26T01:28:20.268Z,0.00
2019-06-26T01:29:20.161Z,0.00
2019-06-26T01:30:20.403Z,0.00
2019-06-26T01:31:20.083Z,0.00
2019-06-26T01:32:19.669Z,0.00
2019-06-26T01:33:19.854Z,0.00
2019-06-26T01:35:19.651Z,0.00
2019-06-26T01:36:19.835Z,0.00
2019-06-26T01:37:20.012Z,0.00
2019-06-26T01:38:20.036Z,0.00
2019-06-26T01:39:19.705Z,0.00
2019-06-26T01:40:19.589Z,0.00
2019-06-26T01:41:19.665Z,0.00
2019-06-26T01:42:19.829Z,0.00
2019-06-26T01:43:20.167Z,0.00
2019-06-26T01:44:19.729Z,0.00
2019-06-26T01:45:19.519Z,0.00
2019-06-26T01:46:19.686Z,0.00
2019-06-26T01:47:19.587Z,0.00
2019-06-26T01:48:19.541Z,0.00
2019-06-26T01:49:20.129Z,0.00
2019-06-26T01:50:19.524Z,0.00
2019-06-26T01:51:19.484Z,0.00
2019-06-26T01:52:20.144Z,0.00
2019-06-26T01:53:19.524Z,0.00
2019-06-26T01:54:19.417Z,0.00
2019-06-26T01:56:19.405Z,0.00
2019-06-26T01:57:19.526Z,0.00
2019-06-26T01:58:19.371Z,0.00
2019-06-26T01:59:19.351Z,0.00
2019-06-26T02:01:19.994Z,0.00
2019-06-26T02:02:19.321Z,0.00
2019-06-26T02:03:19.400Z,0.00
2019-06-26T02:04:19.301Z,0.00
2019-06-26T02:05:19.373Z,0.00
2019-06-26T02:06:19.261Z,0.00
2019-06-26T02:07:19.250Z,0.00
2019-06-26T02:08:19.542Z,0.00
2019-06-26T02:09:19.431Z,0.00
2019-06-26T02:10:19.259Z,0.00
2019-06-26T02:11:19.203Z,0.00
2019-06-26T02:12:19.445Z,0.00
2019-06-26T02:15:19.160Z,0.00
2019-06-26T02:16:19.148Z,0.00
2019-06-26T02:17:19.236Z,0.00
2019-06-26T02:18:19.120Z,0.00
2019-06-26T02:20:19.094Z,4.00
2019-06-26T02:21:19.104Z,0.00
2019-06-26T02:22:19.420Z,0.00
2019-06-26T02:27:19.018Z,4.00
2019-06-26T02:28:19.000Z,4.00
2019-06-26T02:29:19.288Z,4.00
2019-06-26T02:30:18.981Z,4.00
2019-06-26T02:31:19.068Z,4.00
2019-06-26T02:32:18.969Z,8.00
2019-06-26T02:33:18.986Z,4.00
2019-06-26T02:34:18.930Z,8.00
2019-06-26T02:35:18.912Z,8.00
2019-06-26T02:36:19.233Z,12.00
2019-06-26T02:37:18.891Z,12.00
2019-06-26T02:38:18.886Z,12.00
2019-06-26T02:39:18.873Z,12.00
2019-06-26T02:40:18.857Z,12.00
2019-06-26T02:41:18.914Z,16.00
2019-06-26T02:42:18.915Z,16.00
2019-06-26T02:43:19.117Z,20.00
2019-06-26T02:44:18.805Z,20.00
2019-06-26T02:45:18.997Z,20.00
2019-06-26T02:46:18.877Z,24.00
2019-06-26T02:47:20.836Z,28.00
2019-06-26T02:48:18.806Z,32.00
2019-06-26T02:49:18.761Z,32.00
2019-06-26T02:51:19.222Z,40.00
2019-06-26T02:52:18.707Z,40.00
2019-06-26T02:53:18.697Z,44.00
2019-06-26T02:54:18.692Z,48.00
2019-06-26T02:55:18.771Z,48.00
2019-06-26T02:56:18.659Z,52.00
2019-06-26T02:57:18.950Z,60.00
2019-06-26T02:58:18.641Z,64.00
2019-06-26T02:59:18.629Z,64.00
2019-06-26T03:00:18.621Z,72.00
2019-06-26T03:01:18.934Z,72.00
2019-06-26T03:02:18.603Z,80.00
2019-06-26T03:03:18.874Z,84.00
2019-06-26T03:04:18.662Z,88.00
2019-06-26T03:05:18.698Z,92.00
2019-06-26T03:06:18.549Z,100.00
2019-06-26T03:07:18.528Z,104.00
2019-06-26T03:08:18.509Z,108.00
2019-06-26T03:09:18.801Z,112.00
2019-06-26T03:10:18.644Z,116.00
2019-06-26T03:11:18.473Z,124.00
2019-06-26T03:12:18.598Z,128.00
2019-06-26T03:13:18.576Z,132.00
2019-06-26T03:14:18.433Z,140.00
2019-06-26T03:15:19.025Z,140.00
2019-06-26T03:16:18.510Z,144.00
2019-06-26T03:17:18.496Z,148.00
2019-06-26T03:18:18.383Z,156.00
2019-06-26T03:19:18.377Z,164.00
2019-06-26T03:20:18.458Z,172.00
2019-06-26T03:21:18.649Z,176.00
2019-06-26T03:23:18.319Z,200.00
2019-06-26T03:24:18.314Z,208.00
2019-06-26T03:26:18.281Z,232.00
2019-06-26T03:27:18.672Z,244.00
2019-06-26T03:29:18.253Z,260.00
2019-06-26T03:30:18.291Z,264.00
2019-06-26T03:32:18.278Z,284.00
2019-06-26T03:33:18.499Z,296.00
2019-06-26T03:34:18.317Z,304.00
2019-06-26T03:35:18.173Z,308.00
2019-06-26T03:36:18.163Z,316.00
2019-06-26T03:37:18.149Z,324.00
2019-06-26T03:38:18.154Z,328.00
2019-06-26T03:39:18.258Z,336.00
2019-06-26T03:40:18.525Z,344.00
2019-06-26T03:41:18.209Z,352.00
2019-06-26T03:42:18.205Z,360.00
2019-06-26T03:43:18.226Z,368.00
2019-06-26T03:44:18.099Z,376.00
2019-06-26T03:45:25.917Z,388.00
2019-06-26T03:46:18.147Z,400.00
2019-06-26T03:47:18.391Z,408.00
2019-06-26T03:48:18.390Z,420.00
2019-06-26T03:49:18.004Z,428.00
2019-06-26T03:50:18.048Z,440.00
2019-06-26T03:51:18.409Z,448.00
2019-06-26T03:52:18.132Z,460.00
2019-06-26T03:53:17.962Z,472.00
2019-06-26T03:54:18.249Z,480.00
2019-06-26T03:55:18.126Z,492.00
2019-06-26T03:56:18.024Z,500.00
2019-06-26T03:57:17.909Z,512.00
2019-06-26T03:58:18.194Z,520.00
2019-06-26T03:59:17.980Z,528.00
2019-06-26T04:00:17.979Z,540.00
2019-06-26T04:01:18.163Z,552.00
2019-06-26T04:02:17.845Z,560.00
2019-06-26T04:03:17.840Z,568.00
2019-06-26T04:04:17.975Z,576.00
2019-06-26T04:05:17.813Z,584.00
2019-06-26T04:06:17.837Z,588.00
2019-06-26T04:07:17.787Z,600.00
2019-06-26T04:08:18.072Z,612.00
2019-06-26T04:09:17.863Z,620.00
2019-06-26T04:10:17.751Z,632.00
2019-06-26T04:11:17.738Z,640.00
2019-06-26T04:13:17.718Z,660.00
2019-06-26T04:14:17.700Z,664.00
2019-06-26T04:18:17.969Z,712.00
2019-06-26T04:19:17.639Z,720.00
2019-06-26T04:20:17.631Z,732.00
2019-06-26T04:21:17.617Z,740.00
2019-06-26T04:22:17.607Z,748.00
2019-06-26T04:25:17.988Z,780.00
2019-06-26T04:26:17.663Z,788.00
2019-06-26T04:28:17.588Z,808.00
2019-06-26T04:29:17.629Z,816.00
2019-06-26T04:30:17.519Z,828.00
2019-06-26T04:31:18.635Z,832.00
2019-06-26T04:32:17.504Z,844.00
2019-06-26T04:33:17.635Z,852.00
2019-06-26T04:34:17.473Z,864.00
2019-06-26T04:35:17.458Z,872.00
2019-06-26T04:36:17.463Z,880.00
2019-06-26T04:37:17.743Z,888.00
2019-06-26T04:39:17.411Z,908.00
2019-06-26T04:42:17.389Z,936.00
2019-06-26T04:43:17.445Z,944.00
2019-06-26T04:44:18.031Z,948.00
2019-06-26T04:45:17.406Z,964.00
2019-06-26T04:46:18.759Z,976.00
2019-06-26T04:47:17.373Z,980.00
2019-06-26T04:48:17.927Z,988.00
2019-06-26T04:49:17.596Z,996.00
2019-06-26T04:50:17.593Z,1004.00
2019-06-26T04:51:17.277Z,1016.00
2019-06-26T04:52:17.402Z,1024.00
2019-06-26T04:53:17.309Z,1028.00
2019-06-26T04:54:17.619Z,1036.00
2019-06-26T05:02:17.474Z,1120.00
2019-06-26T05:03:29.538Z,1136.00
2019-06-26T05:04:17.137Z,1148.00
2019-06-26T05:05:17.134Z,1144.00
2019-06-26T05:06:17.116Z,1168.00
2019-06-26T05:07:17.402Z,1168.00
2019-06-26T05:09:17.233Z,1184.00
2019-06-26T05:14:17.327Z,1256.00
2019-06-26T05:16:20.034Z,1288.00
2019-06-26T05:17:17.108Z,1288.00
2019-06-26T05:19:16.978Z,1324.00
2019-06-26T05:20:17.010Z,1340.00
2019-06-26T05:21:17.637Z,1356.00
2019-06-26T05:22:17.063Z,1372.00
2019-06-26T05:23:17.284Z,1340.00
2019-06-26T05:24:17.239Z,1340.00
2019-06-26T05:25:16.915Z,1332.00
2019-06-26T05:26:17.002Z,1328.00
2019-06-26T05:27:16.991Z,1344.00
2019-06-26T05:28:17.177Z,1356.00
2019-06-26T05:29:16.874Z,1356.00
2019-06-26T05:30:17.023Z,1364.00
2019-06-26T05:31:17.024Z,1360.00
2019-06-26T05:32:16.837Z,1356.00
2019-06-26T05:33:18.044Z,1360.00
2019-06-26T05:34:17.290Z,1372.00
2019-06-26T05:35:17.106Z,1432.00
2019-06-26T05:36:16.810Z,1396.00
2019-06-26T05:37:16.810Z,1424.00
2019-06-26T05:38:16.782Z,1412.00
2019-06-26T05:39:16.766Z,1416.00
2019-06-26T05:41:17.398Z,1372.00
2019-06-26T05:42:16.756Z,1364.00
2019-06-26T05:43:16.823Z,1364.00
2019-06-26T05:44:16.723Z,1384.00
2019-06-26T05:45:16.768Z,1540.00
2019-06-26T05:46:30.138Z,1528.00
2019-06-26T05:47:16.713Z,1520.00
2019-06-26T05:50:16.960Z,1580.00
2019-06-26T05:51:16.846Z,1532.00
2019-06-26T05:53:17.264Z,1632.00
2019-06-26T05:54:16.799Z,1620.00
2019-06-26T05:55:16.876Z,1688.00
2019-06-26T05:56:16.694Z,1640.00
2019-06-26T05:57:16.955Z,1676.00
2019-06-26T05:58:16.583Z,1656.00
2019-06-26T06:00:16.626Z,1680.00
2019-06-26T06:01:16.549Z,1700.00
2019-06-26T06:03:16.861Z,1720.00
2019-06-26T06:04:16.586Z,1696.00
2019-06-26T06:06:16.768Z,1700.00
2019-06-26T06:07:16.605Z,1724.00
2019-06-26T06:09:16.796Z,1800.00
2019-06-26T06:10:16.803Z,1776.00
2019-06-26T06:11:16.524Z,1776.00
2019-06-26T06:12:16.539Z,1776.00
2019-06-26T06:13:17.100Z,1840.00
2019-06-26T06:14:16.461Z,1844.00
2019-06-26T06:15:16.736Z,1848.00
2019-06-26T06:16:16.694Z,1848.00
2019-06-26T06:17:16.468Z,1824.00
2019-06-26T06:18:16.439Z,1836.00
2019-06-26T06:19:16.738Z,1824.00
2019-06-26T06:22:16.699Z,1884.00
2019-06-26T06:23:16.665Z,1860.00
2019-06-26T06:24:16.476Z,1988.00
2019-06-26T06:26:16.329Z,1976.00
2019-06-26T06:28:16.785Z,1996.00
2019-06-26T06:29:16.935Z,2056.00
2019-06-26T06:30:16.554Z,2052.00
2019-06-26T06:31:16.624Z,1972.00
2019-06-26T06:32:17.083Z,1860.00
2019-06-26T06:33:16.496Z,1932.00
2019-06-26T06:34:16.681Z,2028.00
2019-06-26T06:35:16.230Z,2100.00
2019-06-26T06:36:16.231Z,2128.00
2019-06-26T06:37:16.229Z,2120.00
2019-06-26T06:38:16.384Z,2016.00
2019-06-26T06:39:16.289Z,2040.00
2019-06-26T06:40:16.484Z,2036.00
2019-06-26T06:41:16.525Z,1992.00
2019-06-26T06:42:16.187Z,1952.00
2019-06-26T06:43:16.215Z,1948.00
2019-06-26T06:45:16.134Z,2112.00
2019-06-26T06:46:16.318Z,2052.00
2019-06-26T06:47:16.426Z,2056.00
2019-06-26T06:49:16.247Z,2060.00
2019-06-26T06:51:16.106Z,2000.00
2019-06-26T06:52:16.833Z,2216.00
2019-06-26T06:53:18.205Z,2160.00
2019-06-26T06:55:16.468Z,2220.00
2019-06-26T06:56:16.061Z,2240.00
2019-06-26T06:57:16.029Z,2220.00
2019-06-26T06:58:16.328Z,2188.00
2019-06-26T06:59:16.048Z,2120.00
2019-06-26T07:00:16.162Z,2064.00
2019-06-26T07:01:16.048Z,2136.00
2019-06-26T07:02:16.298Z,2252.00
2019-06-26T07:03:16.205Z,2264.00
2019-06-26T07:04:16.296Z,2276.00
2019-06-26T07:05:16.131Z,2308.00
2019-06-26T07:06:21.514Z,2304.00
2019-06-26T07:09:18.038Z,2236.00
2019-06-26T07:10:17.500Z,2480.00
2019-06-26T07:19:15.856Z,2648.00
2019-06-26T07:20:16.304Z,2740.00
2019-06-26T07:21:15.866Z,2712.00
2019-06-26T07:22:16.047Z,2608.00
2019-06-26T07:23:16.692Z,2732.00
2019-06-26T07:24:15.854Z,2760.00
2019-06-26T07:26:15.809Z,2836.00
2019-06-26T07:27:20.910Z,2824.00
2019-06-26T07:28:15.825Z,2948.00
2019-06-26T07:29:15.807Z,3048.00
2019-06-26T07:30:16.082Z,3252.00
2019-06-26T07:31:16.307Z,3480.00
2019-06-26T07:32:15.749Z,3740.00
2019-06-26T07:33:15.933Z,3932.00
2019-06-26T07:35:15.766Z,4376.00
2019-06-26T07:37:16.904Z,4544.00
2019-06-26T07:38:15.949Z,4708.00
2019-06-26T07:39:15.743Z,4672.00
2019-06-26T07:40:15.722Z,4964.00
2019-06-26T07:41:16.495Z,4688.00
2019-06-26T07:42:15.653Z,4648.00
2019-06-26T07:43:16.754Z,4644.00
2019-06-26T07:44:15.638Z,4632.00
2019-06-26T07:45:15.654Z,4756.00
2019-06-26T07:46:15.626Z,4948.00
2019-06-26T07:48:16.457Z,4832.00
2019-06-26T07:49:16.016Z,5272.00
2019-06-26T07:50:16.539Z,5412.00
2019-06-26T07:51:15.592Z,5188.00
2019-06-26T07:53:15.578Z,5364.00
2019-06-26T07:54:15.992Z,5224.00
2019-06-26T07:55:15.590Z,5588.00
2019-06-26T07:59:17.950Z,5488.00
2019-06-26T08:00:15.516Z,6068.00
2019-06-26T08:04:15.643Z,5896.00
2019-06-26T08:05:15.822Z,5580.00
2019-06-26T08:07:15.465Z,6340.00
2019-06-26T08:08:15.483Z,5792.00
2019-06-26T08:09:15.552Z,5556.00
2019-06-26T08:10:15.458Z,6024.00
2019-06-26T08:11:15.870Z,5664.00
2019-06-26T08:12:15.497Z,5504.00
2019-06-26T08:13:16.577Z,5476.00
2019-06-26T08:14:15.665Z,5772.00
2019-06-26T08:15:15.705Z,5584.00
2019-06-26T08:16:15.699Z,5808.00
2019-06-26T08:17:15.769Z,5928.00
2019-06-26T08:18:17.229Z,6452.00
2019-06-26T08:20:15.721Z,6432.00
2019-06-26T08:23:16.531Z,6296.00
2019-06-26T08:24:15.702Z,5840.00
2019-06-26T08:25:15.365Z,6332.00
2019-06-26T08:26:15.509Z,6356.00
2019-06-26T08:27:15.365Z,6068.00
2019-06-26T08:29:15.349Z,6328.00
2019-06-26T08:30:15.338Z,6372.00
2019-06-26T08:32:15.391Z,6396.00
2019-06-26T08:33:15.320Z,6448.00
2019-06-26T08:34:15.325Z,6464.00
2019-06-26T08:35:15.553Z,6544.00
2019-06-26T08:36:15.306Z,6368.00
2019-06-26T08:37:15.522Z,6248.00
2019-06-26T08:38:15.942Z,6240.00
2019-06-26T08:39:15.348Z,6176.00
2019-06-26T08:40:15.285Z,6576.00
2019-06-26T08:41:15.278Z,6696.00
2019-06-26T08:44:15.609Z,6272.00
2019-06-26T08:45:15.310Z,6364.00
2019-06-26T08:46:15.281Z,6064.00
2019-06-26T08:47:15.337Z,6620.00
2019-06-26T08:48:23.151Z,6692.00
2019-06-26T08:49:25.484Z,6524.00
2019-06-26T08:50:15.344Z,6348.00
2019-06-26T08:51:15.649Z,6648.00
2019-06-26T08:52:15.237Z,6652.00
2019-06-26T08:53:15.393Z,7084.00
2019-06-26T08:54:15.210Z,6660.00
2019-06-26T08:55:15.275Z,6704.00
2019-06-26T08:56:15.214Z,6892.00
2019-06-26T08:57:15.349Z,6096.00
2019-06-26T08:58:15.486Z,6416.00
2019-06-26T08:59:15.440Z,6440.00
2019-06-26T09:00:15.240Z,7020.00
2019-06-26T09:01:15.218Z,6700.00
2019-06-26T09:02:15.195Z,7000.00
2019-06-26T09:03:15.449Z,4960.00
2019-06-26T09:04:15.226Z,6468.00
2019-06-26T09:05:15.447Z,6428.00
2019-06-26T09:06:15.252Z,6336.00
2019-06-26T09:07:15.144Z,6764.00
2019-06-26T09:08:15.169Z,6480.00
2019-06-26T09:09:15.127Z,6696.00
2019-06-26T09:10:15.146Z,6732.00
2019-06-26T09:11:15.132Z,6868.00
2019-06-26T09:12:15.521Z,6944.00
2019-06-26T09:14:15.229Z,5088.00
2019-06-26T09:15:15.129Z,6356.00
2019-06-26T09:18:15.493Z,6936.00
2019-06-26T09:19:15.429Z,7264.00
2019-06-26T09:20:15.233Z,7372.00
2019-06-26T09:21:15.317Z,7620.00
2019-06-26T09:22:15.688Z,5972.00
2019-06-26T09:23:15.194Z,6324.00
2019-06-26T09:24:15.770Z,7700.00
2019-06-26T09:25:22.081Z,9352.00
2019-06-26T09:27:15.362Z,7580.00
2019-06-26T09:28:15.105Z,7064.00
2019-06-26T09:29:15.089Z,7020.00
2019-06-26T09:30:15.429Z,7788.00
2019-06-26T09:31:15.085Z,8156.00
2019-06-26T09:33:15.096Z,8232.00
2019-06-26T09:34:15.067Z,8120.00
2019-06-26T09:35:15.075Z,6724.00
2019-06-26T09:36:15.357Z,8688.00
2019-06-26T09:37:15.297Z,8596.00
2019-06-26T09:38:15.035Z,8836.00
2019-06-26T09:39:15.041Z,8800.00
2019-06-26T09:40:15.031Z,7832.00
2019-06-26T09:41:15.112Z,9212.00
2019-06-26T09:42:19.360Z,9092.00
2019-06-26T09:43:15.029Z,8968.00
2019-06-26T09:44:15.045Z,9612.00
2019-06-26T09:45:15.029Z,9172.00
2019-06-26T09:46:15.027Z,8872.00
2019-06-26T09:47:15.728Z,9076.00
2019-06-26T09:48:16.000Z,9396.00
2019-06-26T09:49:15.244Z,7928.00
2019-06-26T09:52:15.003Z,8732.00
2019-06-26T09:53:15.055Z,13752.00
2019-06-26T09:54:15.329Z,10320.00
2019-06-26T09:56:15.046Z,10400.00
2019-06-26T09:58:15.386Z,10148.00
2019-06-26T09:59:15.003Z,11032.00
2019-06-26T10:00:15.329Z,11052.00
2019-06-26T10:01:14.989Z,10980.00
2019-06-26T10:02:15.002Z,11052.00
2019-06-26T10:03:15.039Z,11560.00
2019-06-26T10:04:14.993Z,10596.00
2019-06-26T10:05:14.995Z,10852.00
2019-06-26T10:06:14.984Z,10364.00
2019-06-26T10:07:15.368Z,11160.00
2019-06-26T10:08:15.044Z,17056.00
2019-06-26T10:09:15.000Z,20384.00
2019-06-26T10:10:14.993Z,16192.00
2019-06-26T10:11:14.989Z,13088.00
2019-06-26T10:12:14.989Z,10552.00
2019-06-26T10:13:14.985Z,20608.00
2019-06-26T10:15:15.039Z,32256.00
2019-06-26T10:16:15.088Z,48480.00
2019-06-26T10:17:14.994Z,15904.00
2019-06-26T10:18:15.070Z,13280.00
2019-06-26T10:19:15.807Z,11840.00
2019-06-26T10:20:18.770Z,79392.00
2019-06-26T10:23:15.043Z,16144.00
2019-06-26T10:24:15.147Z,8864.00
2019-06-26T10:25:15.009Z,88608.00
2019-06-26T10:27:15.028Z,74720.00
2019-06-26T10:28:15.300Z,79072.00
2019-06-26T10:29:15.005Z,77280.00
2019-06-26T10:30:14.980Z,81408.00
2019-06-26T10:32:15.032Z,82656.00
2019-06-26T10:35:15.340Z,79232.00
2019-06-26T10:36:14.993Z,80864.00
2019-06-26T10:38:15.135Z,77248.00
2019-06-26T10:39:16.043Z,74816.00
2019-06-26T10:40:16.410Z,79488.00
2019-06-26T10:41:14.986Z,61664.00
2019-06-26T10:42:15.306Z,0.00
2019-06-26T10:43:15.313Z,73408.00
2019-06-26T10:44:14.987Z,74688.00
2019-06-26T10:45:14.971Z,76768.00
2019-06-26T10:46:14.976Z,92288.00
2019-06-26T10:47:14.991Z,78336.00
2019-06-26T10:49:26.464Z,80192.00
2019-06-26T10:50:15.005Z,81376.00
2019-06-26T10:51:15.385Z,78912.00
2019-06-26T10:52:14.998Z,79104.00
2019-06-26T10:53:14.977Z,80800.00
2019-06-26T10:56:15.343Z,78784.00
2019-06-26T10:57:14.989Z,80224.00
2019-06-26T11:00:14.990Z,77312.00
2019-06-26T11:01:15.110Z,80928.00
2019-06-26T11:03:15.288Z,81888.00
2019-06-26T11:04:15.370Z,83264.00
2019-06-26T11:05:15.022Z,80736.00
2019-06-26T11:06:14.988Z,81920.00
2019-06-26T11:08:14.985Z,76000.00
2019-06-26T11:09:15.505Z,76160.00
2019-06-26T11:12:15.386Z,78592.00
2019-06-26T11:13:15.208Z,76960.00
2019-06-26T11:14:15.013Z,80224.00
2019-06-26T11:15:15.376Z,77440.00
2019-06-26T11:16:15.045Z,77728.00
2019-06-26T11:17:14.999Z,76000.00
2019-06-26T11:18:14.995Z,77152.00
2019-06-26T11:19:15.002Z,70912.00
2019-06-26T11:20:15.045Z,73952.00
2019-06-26T11:21:15.308Z,73568.00
2019-06-26T11:22:15.002Z,71584.00
2019-06-26T11:23:15.047Z,68480.00
2019-06-26T11:27:15.523Z,78464.00
2019-06-26T11:28:15.024Z,73600.00
2019-06-26T11:30:15.039Z,76384.00
2019-06-26T11:31:15.072Z,73664.00
2019-06-26T11:32:15.220Z,70432.00
2019-06-26T11:33:15.343Z,75840.00
2019-06-26T11:34:15.049Z,75200.00
2019-06-26T11:35:15.025Z,77120.00
2019-06-26T11:36:15.026Z,74400.00
2019-06-26T11:37:15.024Z,74336.00
2019-06-26T11:38:15.078Z,58912.00
2019-06-26T11:39:15.355Z,72224.00
2019-06-26T11:40:15.041Z,58560.00
2019-06-26T11:41:15.027Z,76192.00
2019-06-26T11:42:15.035Z,77984.00
2019-06-26T11:43:15.043Z,74336.00
2019-06-26T11:44:15.041Z,75936.00
2019-06-26T11:45:15.352Z,80576.00
2019-06-26T11:46:15.128Z,77760.00
2019-06-26T11:47:15.203Z,77824.00
2019-06-26T11:48:15.045Z,78144.00
2019-06-26T11:51:15.057Z,79456.00
2019-06-26T11:52:15.522Z,82528.00
2019-06-26T11:54:15.056Z,81632.00
2019-06-26T11:56:15.659Z,74112.00
2019-06-26T11:57:15.054Z,70080.00
2019-06-26T12:00:15.076Z,73184.00
2019-06-26T12:01:15.077Z,74944.00
2019-06-26T12:02:15.077Z,71456.00
2019-06-26T12:03:15.058Z,75072.00
2019-06-26T12:04:15.082Z,75136.00
2019-06-26T12:05:15.064Z,73952.00
2019-06-26T12:07:15.059Z,71232.00
2019-06-26T12:08:18.322Z,73536.00
2019-06-26T12:09:15.071Z,76608.00
2019-06-26T12:10:15.154Z,74848.00
2019-06-26T12:11:15.084Z,72800.00
2019-06-26T12:12:15.089Z,70784.00
2019-06-26T12:13:15.378Z,69184.00
2019-06-26T12:15:15.247Z,72832.00
2019-06-26T12:16:15.118Z,73056.00
2019-06-26T12:17:15.103Z,87168.00
2019-06-26T12:18:15.100Z,72864.00
2019-06-26T12:19:18.663Z,74080.00
2019-06-26T12:20:19.417Z,74112.00
2019-06-26T12:21:15.081Z,73536.00
2019-06-26T12:22:15.088Z,71040.00
2019-06-26T12:24:15.108Z,77376.00
2019-06-26T12:25:15.102Z,77408.00
2019-06-26T12:26:15.175Z,75232.00
2019-06-26T12:27:15.398Z,73952.00
2019-06-26T12:28:15.109Z,72832.00
2019-06-26T12:29:15.102Z,70752.00
2019-06-26T12:30:15.102Z,73056.00
2019-06-26T12:31:15.507Z,71328.00
2019-06-26T12:32:15.229Z,75648.00
2019-06-26T12:33:15.116Z,73984.00
2019-06-26T12:34:15.478Z,76512.00
2019-06-26T12:35:15.110Z,79776.00
2019-06-26T12:36:15.124Z,79968.00
2019-06-26T12:37:15.178Z,76192.00
2019-06-26T12:38:15.142Z,71936.00
2019-06-26T12:39:15.141Z,79392.00
2019-06-26T12:40:15.344Z,78880.00
2019-06-26T12:41:15.423Z,77824.00
2019-06-26T12:42:15.139Z,74528.00
2019-06-26T12:43:15.213Z,74336.00
2019-06-26T12:44:15.127Z,92224.00
2019-06-26T12:45:15.191Z,78496.00
2019-06-26T12:46:18.116Z,75584.00
2019-06-26T12:47:15.161Z,74112.00
2019-06-26T12:48:16.333Z,77792.00
2019-06-26T12:49:15.181Z,0.00
2019-06-26T12:50:15.135Z,72032.00
2019-06-26T12:51:15.143Z,71648.00
2019-06-26T12:52:17.074Z,52448.00
2019-06-26T12:53:15.605Z,0.00
2019-06-26T12:54:15.142Z,74464.00
2019-06-26T12:55:15.149Z,69472.00
2019-06-26T12:56:15.293Z,69696.00
2019-06-26T12:57:15.225Z,0.00
2019-06-26T12:58:19.647Z,68096.00
2019-06-26T12:59:15.449Z,72256.00
2019-06-26T13:00:15.213Z,80064.00
2019-06-26T13:01:15.144Z,7692.00
2019-06-26T13:02:15.201Z,12288.00
2019-06-26T13:03:15.214Z,71520.00
2019-06-26T13:04:15.786Z,64096.00
2019-06-26T13:05:15.443Z,71136.00
2019-06-26T13:06:15.195Z,49440.00
2019-06-26T13:07:15.159Z,0.00
2019-06-26T13:08:15.171Z,71616.00
2019-06-26T13:09:15.152Z,5416.00
2019-06-26T13:10:15.159Z,77472.00
2019-06-26T13:11:15.926Z,76192.00
2019-06-26T13:12:15.140Z,76320.00
2019-06-26T13:13:15.173Z,74720.00
2019-06-26T13:14:15.171Z,79392.00
2019-06-26T13:15:15.396Z,76864.00
2019-06-26T13:16:15.149Z,78304.00
2019-06-26T13:17:15.506Z,8796.00
2019-06-26T13:18:15.146Z,74880.00
2019-06-26T13:19:15.170Z,34388.00
2019-06-26T13:20:15.144Z,75008.00
2019-06-26T13:21:15.371Z,75328.00
2019-06-26T13:22:15.276Z,7596.00
2019-06-26T13:23:15.560Z,9040.00
2019-06-26T13:25:16.082Z,72352.00
2019-06-26T13:26:15.222Z,70112.00
2019-06-26T13:27:16.540Z,8172.00
2019-06-26T13:28:15.153Z,6620.00
2019-06-26T13:29:15.493Z,14560.00
2019-06-26T13:30:15.251Z,155296.00
2019-06-26T13:31:15.133Z,63168.00
2019-06-26T13:32:16.770Z,33984.00
2019-06-26T13:33:15.114Z,7712.00
2019-06-26T13:35:15.692Z,62880.00
2019-06-26T13:36:15.109Z,63264.00
2019-06-26T13:37:15.519Z,4544.00
2019-06-26T13:39:15.108Z,4756.00
2019-06-26T13:40:15.103Z,64480.00
2019-06-26T13:41:15.812Z,76192.00
2019-06-26T13:42:15.407Z,4072.00
2019-06-26T13:43:15.116Z,5052.00
2019-06-26T13:44:15.112Z,61632.00
2019-06-26T13:45:15.131Z,0.00
2019-06-26T13:46:15.109Z,6796.00
2019-06-26T13:48:15.350Z,50624.00
2019-06-26T13:49:16.605Z,0.00
2019-06-26T13:50:15.126Z,16576.00
2019-06-26T13:51:15.141Z,5268.00
2019-06-26T13:53:15.098Z,62752.00
2019-06-26T13:54:15.086Z,6476.00
2019-06-26T13:55:15.079Z,3548.00
2019-06-26T13:56:15.465Z,20384.00
2019-06-26T13:57:15.959Z,8804.00
2019-06-26T14:01:15.176Z,6380.00
2019-06-26T14:02:15.249Z,0.00
2019-06-26T14:04:15.659Z,6732.00
2019-06-26T14:06:15.095Z,8964.00
2019-06-26T14:07:15.059Z,6244.00
2019-06-26T14:10:15.396Z,13368.00
2019-06-26T14:11:15.456Z,12280.00
2019-06-26T14:12:19.035Z,536.00
2019-06-26T14:13:15.081Z,152.00
2019-06-26T14:14:15.636Z,6544.00
2019-06-26T14:15:15.163Z,3800.00
2019-06-26T14:16:15.107Z,6612.00
2019-06-26T14:17:15.329Z,1308.00
2019-06-26T14:18:15.009Z,5708.00
2019-06-26T14:19:15.054Z,0.00
2019-06-26T14:20:15.034Z,5880.00
2019-06-26T14:21:24.955Z,7264.00
2019-06-26T14:23:14.999Z,6900.00
2019-06-26T14:24:15.716Z,41248.00
2019-06-26T14:25:15.020Z,6400.00
2019-06-26T14:26:14.983Z,7552.00
2019-06-26T14:27:14.978Z,5636.00
2019-06-26T14:28:15.002Z,5700.00
2019-06-26T14:29:20.753Z,6308.00
2019-06-26T14:31:15.443Z,13236.00
2019-06-26T14:32:15.070Z,5312.00
2019-06-26T14:33:15.059Z,5956.00
2019-06-26T14:34:14.963Z,8916.00
2019-06-26T14:35:14.941Z,6284.00
2019-06-26T14:36:14.938Z,5252.00
2019-06-26T14:37:15.651Z,4272.00
2019-06-26T14:38:15.105Z,5240.00
2019-06-26T14:41:14.969Z,5428.00